Terminal Aerodrome Forecast
Issued by NWS Wakefield, VA

Home | Current Version | Previous Version | Text Only | Print | Product List | Glossary On
Versions: 1 2 3 4 5 6 7 8 9 10 11 12 13 14 15 16 17 18 19 20 21 22 23 24 25 26
000
FTUS41 KAKQ 051700 RRA
TAFORF
TAF
KORF 051744Z 0518/0618 02020G29KT 2SM -RA OVC004
     FM052200 02023G32KT 1SM -PLSN OVC004
     FM060500 02021G30KT P6SM BKN025
     FM060900 01018G26KT P6SM SCT030=

USA.gov is the U.S. government's official web portal to all federal, state and local government web resources and services.